Wetterdaten: Woche 20.02.12 - 26.02.12 (KW8)
Datum Zeit Temp. Innen Temp. Aussen UV X Diff Temp. Feuchte Inne Feuchte Auss Sonnenschein Luftdruck Regen ab 0,1 Wind Sonnenschein T Regendauer Windben
20.02.2012 00:00 12,6 C -0,0 C 0,0 UV-I 0,0 C 48 % 94 % 0 % 1029,1 hPa 0,0 l/m 0,9 km/h (0 Bft) 0,00 h 0,00 h 1,5 km/h (1 Bft)
20.02.2012 01:00 12,5 C -0,7 C 0,0 UV-I 0,0 C 48 % 95 % 0 % 1029,5 hPa 0,0 l/m 0,7 km/h (0 Bft) 0,00 h 0,00 h 1,3 km/h (1 Bft)
20.02.2012 02:00 12,4 C -1,2 C 0,0 UV-I 0,0 C 48 % 95 % 0 % 1030,3 hPa 0,0 l/m 0,3 km/h (0 Bft) 0,00 h 0,00 h 0,5 km/h (0 Bft)
20.02.2012 03:00 12,4 C -1,4 C 0,0 UV-I 0,0 C 48 % 95 % 0 % 1030,5 hPa 0,0 l/m 0,4 km/h (0 Bft) 0,00 h 0,00 h 1,1 km/h (1 Bft)
20.02.2012 04:00 12,2 C -1,6 C 0,0 UV-I 0,0 C 48 % 96 % 0 % 1031,1 hPa 0,0 l/m 0,4 km/h (0 Bft) 0,00 h 0,00 h 0,7 km/h (0 Bft)
20.02.2012 05:00 12,2 C -1,8 C 0,0 UV-I 0,0 C 48 % 96 % 0 % 1031,5 hPa 0,0 l/m 0,6 km/h (0 Bft) 0,00 h 0,00 h 0,9 km/h (0 Bft)
20.02.2012 06:00 12,2 C -2,2 C 0,0 UV-I 0,0 C 47 % 95 % 0 % 1032,2 hPa 0,0 l/m 0,0 km/h (0 Bft) 0,00 h 0,00 h 0,0 km/h (0 Bft)
20.02.2012 07:00 12,1 C -2,4 C 0,0 UV-I 0,0 C 47 % 96 % 0 % 1032,6 hPa 0,0 l/m 0,1 km/h (0 Bft) 0,00 h 0,00 h 0,3 km/h (0 Bft)
20.02.2012 08:00 12,0 C -2,2 C 0,0 UV-I 0,0 C 47 % 96 % 1 % 1032,6 hPa 0,0 l/m 0,1 km/h (0 Bft) 0,00 h 0,00 h 0,4 km/h (0 Bft)
20.02.2012 09:00 12,0 C -1,1 C 0,0 UV-I 5,1 C 47 % 97 % 86 % 1032,6 hPa 0,0 l/m 1,0 km/h (0 Bft) 0,87 h 0,00 h 1,5 km/h (1 Bft)
20.02.2012 10:00 12,0 C 0,8 C 0,5 UV-I 8,5 C 47 % 97 % 100 % 1033,5 hPa 0,1 l/m 1,4 km/h (1 Bft) 1,00 h 0,00 h 2,4 km/h (1 Bft)
20.02.2012 11:00 12,3 C 2,9 C 1,1 UV-I 8,7 C 47 % 94 % 100 % 1034,1 hPa 0,0 l/m 2,9 km/h (1 Bft) 1,00 h 0,00 h 5,0 km/h (1 Bft)
20.02.2012 12:00 12,6 C 4,2 C 1,7 UV-I 7,3 C 47 % 90 % 100 % 1034,4 hPa 0,0 l/m 5,1 km/h (1 Bft) 1,00 h 0,00 h 7,9 km/h (2 Bft)
20.02.2012 13:00 13,4 C 4,8 C 0,9 UV-I 5,1 C 46 % 84 % 97 % 1035,6 hPa 0,0 l/m 5,9 km/h (2 Bft) 0,93 h 0,00 h 8,2 km/h (2 Bft)
20.02.2012 14:00 13,8 C 4,0 C 0,1 UV-I 1,4 C 43 % 80 % 41 % 1035,0 hPa 0,0 l/m 4,4 km/h (1 Bft) 0,10 h 0,00 h 6,1 km/h (2 Bft)
20.02.2012 15:00 14,1 C 5,1 C 0,2 UV-I 4,8 C 43 % 76 % 91 % 1034,4 hPa 0,0 l/m 4,1 km/h (1 Bft) 0,83 h 0,00 h 7,5 km/h (2 Bft)
20.02.2012 16:00 15,2 C 4,7 C 0,0 UV-I 2,7 C 40 % 71 % 72 % 1034,5 hPa 0,0 l/m 5,7 km/h (1 Bft) 0,90 h 0,00 h 9,1 km/h (2 Bft)
20.02.2012 17:00 14,6 C 3,8 C 0,0 UV-I 0,2 C 39 % 73 % 6 % 1032,9 hPa 0,0 l/m 4,7 km/h (1 Bft) 0,00 h 0,00 h 6,4 km/h (2 Bft)
20.02.2012 18:00 13,5 C 2,8 C 0,0 UV-I 0,0 C 41 % 76 % 0 % 1032,3 hPa 0,0 l/m 1,9 km/h (1 Bft) 0,00 h 0,00 h 2,2 km/h (1 Bft)
20.02.2012 19:00 12,9 C 2,2 C 0,0 UV-I 0,0 C 42 % 79 % 0 % 1032,4 hPa 0,0 l/m 1,4 km/h (1 Bft) 0,00 h 0,00 h 2,7 km/h (1 Bft)
20.02.2012 20:00 12,7 C 1,7 C 0,0 UV-I 0,0 C 43 % 80 % 0 % 1032,4 hPa 0,0 l/m 0,9 km/h (0 Bft) 0,00 h 0,00 h 1,2 km/h (1 Bft)
20.02.2012 21:00 12,6 C 1,4 C 0,0 UV-I 0,0 C 43 % 80 % 0 % 1032,1 hPa 0,0 l/m 2,3 km/h (1 Bft) 0,00 h 0,00 h 3,9 km/h (1 Bft)
20.02.2012 22:00 12,4 C 1,5 C 0,0 UV-I 0,0 C 43 % 79 % 0 % 1031,9 hPa 0,0 l/m 3,7 km/h (1 Bft) 0,00 h 0,00 h 5,9 km/h (2 Bft)
20.02.2012 23:00 12,3 C 1,1 C 0,0 UV-I 0,0 C 43 % 80 % 0 % 1031,4 hPa 0,0 l/m 3,6 km/h (1 Bft) 0,00 h 0,00 h 4,7 km/h (1 Bft)
21.02.2012 00:00 12,4 C 0,7 C 0,0 UV-I 0,0 C 43 % 80 % 0 % 1030,9 hPa 0,0 l/m 2,3 km/h (1 Bft) 0,00 h 0,00 h 4,2 km/h (1 Bft)
21.02.2012 01:00 12,2 C 0,9 C 0,0 UV-I 0,1 C 42 % 80 % 0 % 1030,8 hPa 0,0 l/m 3,9 km/h (1 Bft) 0,00 h 0,00 h 6,3 km/h (2 Bft)
21.02.2012 02:00 12,2 C 1,1 C 0,0 UV-I 0,0 C 42 % 80 % 0 % 1030,6 hPa 0,0 l/m 3,9 km/h (1 Bft) 0,00 h 0,00 h 7,1 km/h (2 Bft)
21.02.2012 03:00 12,2 C 1,1 C 0,0 UV-I 0,0 C 42 % 79 % 0 % 1030,1 hPa 0,0 l/m 5,2 km/h (1 Bft) 0,00 h 0,00 h 8,2 km/h (2 Bft)
21.02.2012 04:00 12,2 C 1,4 C 0,0 UV-I 0,1 C 42 % 78 % 0 % 1030,0 hPa 0,0 l/m 5,7 km/h (1 Bft) 0,00 h 0,00 h 8,2 km/h (2 Bft)
21.02.2012 05:00 12,2 C 1,7 C 0,0 UV-I 0,1 C 42 % 76 % 0 % 1028,7 hPa 0,0 l/m 6,3 km/h (2 Bft) 0,00 h 0,00 h 9,7 km/h (2 Bft)
21.02.2012 06:00 12,2 C 1,8 C 0,0 UV-I 0,1 C 42 % 76 % 0 % 1028,4 hPa 0,0 l/m 5,7 km/h (1 Bft) 0,00 h 0,00 h 8,2 km/h (2 Bft)
21.02.2012 07:00 12,1 C 1,8 C 0,0 UV-I 0,1 C 41 % 75 % 1 % 1028,3 hPa 0,0 l/m 5,6 km/h (1 Bft) 0,00 h 0,00 h 7,1 km/h (2 Bft)
21.02.2012 08:00 12,1 C 2,0 C 0,0 UV-I 0,3 C 41 % 75 % 8 % 1028,3 hPa 0,0 l/m 6,4 km/h (2 Bft) 0,00 h 0,00 h 9,3 km/h (2 Bft)
21.02.2012 09:00 12,2 C 2,8 C 0,1 UV-I 1,2 C 42 % 75 % 34 % 1028,6 hPa 0,0 l/m 6,6 km/h (2 Bft) 0,00 h 0,00 h 10,3 km/h (2 Bft)
21.02.2012 10:00 12,4 C 3,7 C 0,3 UV-I 2,3 C 42 % 75 % 64 % 1029,1 hPa 0,0 l/m 8,5 km/h (2 Bft) 0,20 h 0,00 h 12,3 km/h (3 Bft)
21.02.2012 11:00 12,5 C 5,3 C 1,1 UV-I 5,7 C 42 % 74 % 100 % 1029,5 hPa 0,0 l/m 8,8 km/h (2 Bft) 1,00 h 0,00 h 11,7 km/h (2 Bft)
21.02.2012 12:00 12,8 C 6,7 C 1,8 UV-I 5,5 C 43 % 73 % 100 % 1029,6 hPa 0,0 l/m 9,8 km/h (2 Bft) 1,00 h 0,00 h 11,8 km/h (2 Bft)
21.02.2012 13:00 14,2 C 8,2 C 2,4 UV-I 6,0 C 43 % 71 % 100 % 1032,1 hPa 0,0 l/m 8,6 km/h (2 Bft) 1,00 h 0,00 h 12,3 km/h (3 Bft)
21.02.2012 14:00 15,9 C 9,3 C 1,8 UV-I 5,6 C 41 % 69 % 100 % 1032,1 hPa 0,0 l/m 9,3 km/h (2 Bft) 1,00 h 0,00 h 12,0 km/h (2 Bft)
21.02.2012 15:00 16,2 C 8,9 C 0,2 UV-I 2,2 C 40 % 71 % 55 % 1031,1 hPa 0,0 l/m 6,8 km/h (2 Bft) 0,27 h 0,00 h 9,1 km/h (2 Bft)
21.02.2012 16:00 15,4 C 8,2 C 0,0 UV-I 1,5 C 42 % 73 % 44 % 1030,0 hPa 0,0 l/m 6,0 km/h (2 Bft) 0,37 h 0,00 h 8,1 km/h (2 Bft)
21.02.2012 17:00 14,9 C 7,3 C 0,0 UV-I 0,4 C 43 % 75 % 9 % 1029,9 hPa 0,0 l/m 5,4 km/h (1 Bft) 0,17 h 0,00 h 8,0 km/h (2 Bft)
21.02.2012 18:00 14,1 C 6,2 C 0,0 UV-I 0,0 C 45 % 78 % 0 % 1030,2 hPa 0,0 l/m 2,9 km/h (1 Bft) 0,00 h 0,00 h 3,9 km/h (1 Bft)
21.02.2012 19:00 13,7 C 5,3 C 0,0 UV-I 0,0 C 46 % 81 % 0 % 1030,5 hPa 0,0 l/m 0,6 km/h (0 Bft) 0,00 h 0,00 h 2,1 km/h (1 Bft)
21.02.2012 20:00 13,5 C 5,1 C 0,0 UV-I 0,0 C 47 % 83 % 0 % 1030,4 hPa 0,0 l/m 2,5 km/h (1 Bft) 0,00 h 0,00 h 5,6 km/h (1 Bft)
21.02.2012 21:00 13,3 C 4,3 C 0,0 UV-I 0,0 C 47 % 83 % 0 % 1030,5 hPa 0,0 l/m 2,7 km/h (1 Bft) 0,00 h 0,00 h 3,8 km/h (1 Bft)
21.02.2012 22:00 13,2 C 3,6 C 0,0 UV-I 0,0 C 47 % 84 % 0 % 1030,7 hPa 0,0 l/m 2,4 km/h (1 Bft) 0,00 h 0,00 h 4,3 km/h (1 Bft)
21.02.2012 23:00 13,1 C 3,2 C 0,0 UV-I 0,0 C 47 % 85 % 0 % 1030,6 hPa 0,0 l/m 2,3 km/h (1 Bft) 0,00 h 0,00 h 3,9 km/h (1 Bft)
22.02.2012 00:00 13,0 C 3,1 C 0,0 UV-I 0,0 C 47 % 86 % 0 % 1030,6 hPa 0,0 l/m 1,9 km/h (1 Bft) 0,00 h 0,00 h 3,4 km/h (1 Bft)
22.02.2012 01:00 13,0 C 2,8 C 0,0 UV-I 0,0 C 47 % 86 % 0 % 1030,6 hPa 0,0 l/m 1,3 km/h (1 Bft) 0,00 h 0,00 h 3,2 km/h (1 Bft)
22.02.2012 02:00 12,9 C 2,6 C 0,0 UV-I 0,0 C 47 % 86 % 0 % 1030,3 hPa 0,0 l/m 1,7 km/h (1 Bft) 0,00 h 0,00 h 3,2 km/h (1 Bft)
22.02.2012 03:00 12,8 C 3,0 C 0,0 UV-I 0,0 C 47 % 85 % 0 % 1030,3 hPa 0,0 l/m 3,2 km/h (1 Bft) 0,00 h 0,00 h 5,2 km/h (1 Bft)
22.02.2012 04:00 12,9 C 3,2 C 0,0 UV-I 0,2 C 47 % 85 % 0 % 1029,7 hPa 0,0 l/m 2,7 km/h (1 Bft) 0,00 h 0,00 h 4,8 km/h (1 Bft)
22.02.2012 05:00 12,9 C 3,7 C 0,0 UV-I 0,3 C 47 % 84 % 0 % 1030,0 hPa 0,0 l/m 2,8 km/h (1 Bft) 0,00 h 0,00 h 6,1 km/h (2 Bft)
22.02.2012 06:00 12,9 C 4,0 C 0,0 UV-I 0,3 C 46 % 82 % 0 % 1029,4 hPa 0,0 l/m 5,0 km/h (1 Bft) 0,00 h 0,00 h 7,6 km/h (2 Bft)
22.02.2012 07:00 12,8 C 4,0 C 0,0 UV-I 0,3 C 46 % 81 % 1 % 1029,6 hPa 0,0 l/m 5,1 km/h (1 Bft) 0,07 h 0,00 h 7,3 km/h (2 Bft)
22.02.2012 08:00 12,8 C 3,9 C 0,0 UV-I 0,3 C 46 % 81 % 8 % 1029,7 hPa 0,0 l/m 4,5 km/h (1 Bft) 0,00 h 0,00 h 7,2 km/h (2 Bft)
22.02.2012 09:00 12,8 C 4,5 C 0,1 UV-I 3,5 C 45 % 80 % 75 % 1029,5 hPa 0,0 l/m 6,1 km/h (2 Bft) 0,73 h 0,00 h 8,9 km/h (2 Bft)
22.02.2012 10:00 12,9 C 6,2 C 0,4 UV-I 5,9 C 45 % 75 % 100 % 1029,2 hPa 0,0 l/m 7,1 km/h (2 Bft) 1,00 h 0,00 h 10,8 km/h (2 Bft)
22.02.2012 11:00 13,2 C 7,7 C 1,0 UV-I 5,0 C 46 % 71 % 100 % 1029,3 hPa 0,0 l/m 8,8 km/h (2 Bft) 1,00 h 0,00 h 12,3 km/h (3 Bft)
22.02.2012 12:00 13,6 C 8,4 C 1,3 UV-I 4,0 C 45 % 67 % 98 % 1029,0 hPa 0,0 l/m 9,8 km/h (2 Bft) 1,00 h 0,00 h 13,6 km/h (3 Bft)
22.02.2012 13:00 14,9 C 9,1 C 1,7 UV-I 4,5 C 44 % 65 % 100 % 1029,9 hPa 0,0 l/m 9,7 km/h (2 Bft) 1,00 h 0,00 h 12,5 km/h (3 Bft)
22.02.2012 14:00 15,9 C 9,3 C 1,0 UV-I 2,9 C 41 % 64 % 82 % 1028,6 hPa 0,0 l/m 10,0 km/h (2 Bft) 0,67 h 0,00 h 14,6 km/h (3 Bft)
22.02.2012 15:00 15,7 C 8,9 C 0,3 UV-I 1,4 C 41 % 65 % 39 % 1026,5 hPa 0,0 l/m 7,0 km/h (2 Bft) 0,00 h 0,00 h 10,5 km/h (2 Bft)
22.02.2012 16:00 15,0 C 8,6 C 0,0 UV-I 0,6 C 41 % 65 % 17 % 1025,0 hPa 0,0 l/m 6,4 km/h (2 Bft) 0,00 h 0,00 h 9,7 km/h (2 Bft)
22.02.2012 17:00 14,4 C 8,0 C 0,0 UV-I 0,1 C 43 % 67 % 4 % 1023,9 hPa 0,0 l/m 3,0 km/h (1 Bft) 0,00 h 0,00 h 5,2 km/h (1 Bft)
22.02.2012 18:00 14,1 C 7,4 C 0,0 UV-I 0,1 C 44 % 69 % 0 % 1022,8 hPa 0,0 l/m 2,6 km/h (1 Bft) 0,00 h 0,00 h 5,0 km/h (1 Bft)
22.02.2012 19:00 13,8 C 7,1 C 0,0 UV-I 0,1 C 44 % 70 % 0 % 1022,4 hPa 0,0 l/m 5,1 km/h (1 Bft) 0,00 h 0,00 h 5,9 km/h (2 Bft)
22.02.2012 20:00 13,6 C 6,7 C 0,0 UV-I 0,1 C 44 % 70 % 0 % 1021,8 hPa 0,0 l/m 7,4 km/h (2 Bft) 0,00 h 0,00 h 12,9 km/h (3 Bft)
22.02.2012 21:00 13,5 C 6,7 C 0,0 UV-I 0,2 C 44 % 69 % 0 % 1021,5 hPa 0,0 l/m 9,9 km/h (2 Bft) 0,00 h 0,00 h 16,1 km/h (3 Bft)
22.02.2012 22:00 13,6 C 6,7 C 0,0 UV-I 0,1 C 44 % 69 % 0 % 1020,8 hPa 0,0 l/m 12,4 km/h (3 Bft) 0,00 h 0,13 h 19,1 km/h (3 Bft)
22.02.2012 23:00 13,6 C 6,4 C 0,0 UV-I 0,1 C 44 % 73 % 0 % 1020,1 hPa 0,0 l/m 12,9 km/h (3 Bft) 0,00 h 0,03 h 20,0 km/h (4 Bft)
23.02.2012 00:00 13,5 C 6,5 C 0,0 UV-I 0,1 C 45 % 74 % 0 % 1019,7 hPa 0,0 l/m 13,3 km/h (3 Bft) 0,00 h 0,00 h 16,5 km/h (3 Bft)
23.02.2012 01:00 13,4 C 6,3 C 0,0 UV-I 0,1 C 46 % 78 % 0 % 1019,5 hPa 0,0 l/m 11,9 km/h (2 Bft) 0,00 h 0,13 h 16,7 km/h (3 Bft)
23.02.2012 02:00 13,3 C 5,6 C 0,0 UV-I 0,0 C 49 % 86 % 0 % 1019,2 hPa 0,0 l/m 12,3 km/h (3 Bft) 0,00 h 0,30 h 15,2 km/h (3 Bft)
23.02.2012 03:00 13,1 C 5,3 C 0,0 UV-I 0,0 C 52 % 92 % 0 % 1019,0 hPa 0,0 l/m 12,1 km/h (2 Bft) 0,00 h 0,13 h 16,4 km/h (3 Bft)
23.02.2012 04:00 13,2 C 5,5 C 0,0 UV-I 0,0 C 53 % 94 % 0 % 1019,2 hPa 0,1 l/m 10,7 km/h (2 Bft) 0,00 h 0,47 h 13,9 km/h (3 Bft)
23.02.2012 05:00 13,1 C 5,6 C 0,0 UV-I 0,2 C 55 % 95 % 0 % 1019,2 hPa 0,1 l/m 9,8 km/h (2 Bft) 0,00 h 0,20 h 12,6 km/h (3 Bft)
23.02.2012 06:00 13,0 C 5,7 C 0,0 UV-I 0,2 C 56 % 96 % 0 % 1019,4 hPa 0,0 l/m 10,3 km/h (2 Bft) 0,00 h 0,13 h 14,1 km/h (3 Bft)
23.02.2012 07:00 13,1 C 5,9 C 0,0 UV-I 0,2 C 57 % 96 % 1 % 1019,9 hPa 0,0 l/m 9,6 km/h (2 Bft) 0,03 h 0,27 h 13,3 km/h (3 Bft)
23.02.2012 08:00 13,1 C 6,2 C 0,0 UV-I 0,3 C 57 % 96 % 7 % 1020,4 hPa 0,2 l/m 7,9 km/h (2 Bft) 0,00 h 0,13 h 11,8 km/h (2 Bft)
23.02.2012 09:00 13,2 C 7,1 C 0,0 UV-I 0,1 C 58 % 97 % 2 % 1021,0 hPa 0,0 l/m 8,7 km/h (2 Bft) 0,00 h 0,03 h 14,1 km/h (3 Bft)
23.02.2012 10:00 13,3 C 7,6 C 0,0 UV-I 0,1 C 59 % 96 % 3 % 1022,1 hPa 0,0 l/m 8,2 km/h (2 Bft) 0,00 h 0,03 h 12,5 km/h (3 Bft)
23.02.2012 11:00 13,4 C 8,0 C 0,0 UV-I 0,4 C 60 % 96 % 10 % 1022,7 hPa 0,0 l/m 7,7 km/h (2 Bft) 0,00 h 0,03 h 11,7 km/h (2 Bft)
23.02.2012 12:00 13,6 C 8,4 C 0,0 UV-I 0,5 C 60 % 96 % 15 % 1023,2 hPa 0,0 l/m 5,9 km/h (2 Bft) 0,00 h 0,13 h 8,7 km/h (2 Bft)
23.02.2012 13:00 13,8 C 8,7 C 0,0 UV-I 0,5 C 61 % 96 % 14 % 1023,2 hPa 0,0 l/m 6,8 km/h (2 Bft) 0,00 h 0,00 h 9,5 km/h (2 Bft)
23.02.2012 14:00 13,9 C 9,1 C 0,0 UV-I 0,5 C 61 % 96 % 14 % 1023,3 hPa 0,0 l/m 6,2 km/h (2 Bft) 0,00 h 0,13 h 9,9 km/h (2 Bft)
23.02.2012 15:00 14,0 C 9,7 C 0,0 UV-I 0,5 C 62 % 96 % 16 % 1023,4 hPa 0,0 l/m 6,0 km/h (2 Bft) 0,00 h 0,03 h 8,4 km/h (2 Bft)
23.02.2012 16:00 14,2 C 10,2 C 0,0 UV-I 0,3 C 62 % 95 % 9 % 1023,3 hPa 0,0 l/m 5,8 km/h (2 Bft) 0,00 h 0,03 h 7,4 km/h (2 Bft)
23.02.2012 17:00 14,2 C 10,0 C 0,0 UV-I 0,0 C 62 % 95 % 0 % 1023,8 hPa 0,0 l/m 3,5 km/h (1 Bft) 0,00 h 0,10 h 5,4 km/h (1 Bft)
23.02.2012 18:00 14,2 C 9,8 C 0,0 UV-I 0,0 C 62 % 94 % 0 % 1024,2 hPa 0,0 l/m 3,1 km/h (1 Bft) 0,00 h 0,13 h 5,5 km/h (1 Bft)
23.02.2012 19:00 14,2 C 9,6 C 0,0 UV-I 0,0 C 63 % 94 % 0 % 1024,0 hPa 0,0 l/m 3,9 km/h (1 Bft) 0,00 h 0,10 h 7,4 km/h (2 Bft)
23.02.2012 20:00 14,2 C 9,5 C 0,0 UV-I 0,0 C 63 % 94 % 0 % 1024,2 hPa 0,0 l/m 2,5 km/h (1 Bft) 0,00 h 0,00 h 4,1 km/h (1 Bft)
23.02.2012 21:00 14,2 C 9,0 C 0,0 UV-I 0,0 C 62 % 94 % 0 % 1024,1 hPa 0,0 l/m 1,3 km/h (1 Bft) 0,00 h 0,03 h 2,3 km/h (1 Bft)
23.02.2012 22:00 14,2 C 9,0 C 0,0 UV-I 0,0 C 62 % 95 % 0 % 1024,3 hPa 0,0 l/m 1,9 km/h (1 Bft) 0,00 h 0,03 h 3,6 km/h (1 Bft)
23.02.2012 23:00 14,1 C 9,7 C 0,0 UV-I 0,0 C 63 % 95 % 0 % 1024,2 hPa 0,0 l/m 6,8 km/h (2 Bft) 0,00 h 0,03 h 10,2 km/h (2 Bft)
24.02.2012 00:00 14,3 C 9,8 C 0,0 UV-I 0,0 C 64 % 96 % 0 % 1024,4 hPa 0,0 l/m 8,3 km/h (2 Bft) 0,00 h 0,00 h 11,8 km/h (2 Bft)
24.02.2012 01:00 14,3 C 9,7 C 0,0 UV-I 0,0 C 64 % 96 % 0 % 1025,0 hPa 0,0 l/m 7,0 km/h (2 Bft) 0,00 h 0,10 h 9,2 km/h (2 Bft)
24.02.2012 02:00 14,2 C 9,6 C 0,0 UV-I 0,0 C 65 % 96 % 0 % 1025,0 hPa 0,0 l/m 6,7 km/h (2 Bft) 0,00 h 0,13 h 9,0 km/h (2 Bft)
24.02.2012 03:00 14,4 C 9,6 C 0,0 UV-I 0,0 C 65 % 97 % 0 % 1024,7 hPa 0,0 l/m 7,7 km/h (2 Bft) 0,00 h 0,07 h 11,7 km/h (2 Bft)
24.02.2012 04:00 14,3 C 9,5 C 0,0 UV-I 0,0 C 65 % 97 % 0 % 1024,6 hPa 0,0 l/m 8,5 km/h (2 Bft) 0,00 h 0,17 h 12,7 km/h (3 Bft)
24.02.2012 05:00 14,3 C 9,5 C 0,0 UV-I 0,0 C 66 % 98 % 0 % 1024,7 hPa 0,0 l/m 7,1 km/h (2 Bft) 0,00 h 0,10 h 10,2 km/h (2 Bft)
24.02.2012 06:00 14,3 C 9,6 C 0,0 UV-I 0,0 C 66 % 98 % 0 % 1024,3 hPa 0,0 l/m 6,8 km/h (2 Bft) 0,00 h 0,10 h 10,1 km/h (2 Bft)
24.02.2012 07:00 14,3 C 9,6 C 0,0 UV-I 0,0 C 66 % 98 % 0 % 1024,6 hPa 0,0 l/m 7,2 km/h (2 Bft) 0,00 h 0,13 h 8,8 km/h (2 Bft)
24.02.2012 08:00 14,4 C 9,5 C 0,0 UV-I 0,0 C 66 % 98 % 0 % 1025,1 hPa 0,0 l/m 7,1 km/h (2 Bft) 0,00 h 0,17 h 9,3 km/h (2 Bft)
24.02.2012 09:00 14,6 C 9,5 C 0,0 UV-I 0,0 C 66 % 98 % 0 % 1025,4 hPa 0,0 l/m 7,8 km/h (2 Bft) 0,00 h 0,13 h 11,3 km/h (2 Bft)
24.02.2012 10:00 14,6 C 9,5 C 0,0 UV-I 0,1 C 66 % 98 % 3 % 1025,6 hPa 0,0 l/m 8,7 km/h (2 Bft) 0,00 h 0,00 h 11,4 km/h (2 Bft)
24.02.2012 11:00 14,9 C 9,6 C 0,0 UV-I 0,4 C 65 % 97 % 12 % 1025,8 hPa 0,0 l/m 9,5 km/h (2 Bft) 0,00 h 0,00 h 12,7 km/h (3 Bft)
24.02.2012 12:00 15,1 C 9,7 C 0,0 UV-I 0,4 C 64 % 97 % 12 % 1025,9 hPa 0,0 l/m 10,1 km/h (2 Bft) 0,00 h 0,10 h 14,5 km/h (3 Bft)
24.02.2012 13:00 15,2 C 9,8 C 0,0 UV-I 0,5 C 64 % 97 % 14 % 1025,4 hPa 0,0 l/m 10,1 km/h (2 Bft) 0,00 h 0,03 h 14,0 km/h (3 Bft)
24.02.2012 14:00 15,1 C 10,1 C 0,0 UV-I 0,3 C 64 % 97 % 8 % 1024,9 hPa 0,0 l/m 8,0 km/h (2 Bft) 0,00 h 0,07 h 11,9 km/h (2 Bft)
24.02.2012 15:00 14,9 C 9,9 C 0,0 UV-I 0,0 C 65 % 97 % 0 % 1025,1 hPa 0,0 l/m 7,1 km/h (2 Bft) 0,00 h 0,40 h 11,5 km/h (2 Bft)
24.02.2012 16:00 14,9 C 9,7 C 0,0 UV-I 0,0 C 65 % 97 % 0 % 1025,1 hPa 0,0 l/m 8,6 km/h (2 Bft) 0,00 h 0,13 h 11,3 km/h (2 Bft)
24.02.2012 17:00 14,8 C 9,8 C 0,0 UV-I 0,0 C 65 % 97 % 0 % 1025,2 hPa 0,1 l/m 5,9 km/h (2 Bft) 0,00 h 0,33 h 9,4 km/h (2 Bft)
24.02.2012 18:00 14,8 C 9,5 C 0,0 UV-I 0,0 C 65 % 97 % 0 % 1025,3 hPa 0,1 l/m 4,9 km/h (1 Bft) 0,00 h 0,40 h 7,5 km/h (2 Bft)
24.02.2012 19:00 14,7 C 9,5 C 0,0 UV-I 0,0 C 66 % 98 % 0 % 1025,8 hPa 0,1 l/m 5,5 km/h (1 Bft) 0,00 h 0,47 h 8,4 km/h (2 Bft)
24.02.2012 20:00 14,7 C 9,5 C 0,0 UV-I 0,0 C 66 % 98 % 0 % 1025,7 hPa 0,2 l/m 5,5 km/h (1 Bft) 0,00 h 0,57 h 10,2 km/h (2 Bft)
24.02.2012 21:00 14,8 C 9,6 C 0,0 UV-I 0,0 C 66 % 98 % 0 % 1026,0 hPa 0,5 l/m 5,4 km/h (1 Bft) 0,00 h 0,83 h 6,5 km/h (2 Bft)
24.02.2012 22:00 14,8 C 9,5 C 0,0 UV-I 0,0 C 66 % 98 % 0 % 1026,9 hPa 0,4 l/m 4,4 km/h (1 Bft) 0,00 h 0,87 h 6,5 km/h (2 Bft)
24.02.2012 23:00 14,8 C 9,0 C 0,0 UV-I 0,0 C 65 % 98 % 0 % 1027,2 hPa 0,0 l/m 0,7 km/h (0 Bft) 0,00 h 0,10 h 0,8 km/h (0 Bft)
25.02.2012 00:00 14,8 C 8,1 C 0,0 UV-I 0,0 C 64 % 97 % 0 % 1026,8 hPa 0,0 l/m 0,5 km/h (0 Bft) 0,00 h 0,03 h 1,3 km/h (1 Bft)
25.02.2012 01:00 14,8 C 7,8 C 0,0 UV-I 0,0 C 64 % 98 % 0 % 1027,2 hPa 0,1 l/m 0,8 km/h (0 Bft) 0,00 h 0,07 h 2,4 km/h (1 Bft)
25.02.2012 02:00 14,7 C 6,9 C 0,0 UV-I 0,0 C 63 % 98 % 0 % 1026,9 hPa 0,0 l/m 0,3 km/h (0 Bft) 0,00 h 0,17 h 0,5 km/h (0 Bft)
25.02.2012 03:00 14,6 C 6,7 C 0,0 UV-I 0,0 C 63 % 98 % 0 % 1026,8 hPa 0,0 l/m 0,3 km/h (0 Bft) 0,00 h 0,10 h 0,1 km/h (0 Bft)
25.02.2012 04:00 14,6 C 6,6 C 0,0 UV-I 0,0 C 63 % 98 % 0 % 1026,6 hPa 0,0 l/m 0,0 km/h (0 Bft) 0,00 h 0,03 h 0,0 km/h (0 Bft)
25.02.2012 05:00 14,7 C 6,2 C 0,0 UV-I 0,0 C 62 % 98 % 0 % 1026,2 hPa 0,0 l/m 0,8 km/h (0 Bft) 0,00 h 0,10 h 1,5 km/h (1 Bft)
25.02.2012 06:00 14,6 C 6,2 C 0,0 UV-I 0,0 C 62 % 98 % 0 % 1025,8 hPa 0,0 l/m 1,2 km/h (1 Bft) 0,00 h 0,03 h 2,4 km/h (1 Bft)
25.02.2012 07:00 14,5 C 6,2 C 0,0 UV-I 0,0 C 61 % 98 % 0 % 1025,6 hPa 0,0 l/m 1,6 km/h (1 Bft) 0,00 h 0,07 h 3,1 km/h (1 Bft)
25.02.2012 08:00 14,4 C 6,6 C 0,0 UV-I 0,0 C 61 % 98 % 0 % 1025,2 hPa 0,0 l/m 0,9 km/h (0 Bft) 0,00 h 0,13 h 1,6 km/h (1 Bft)
25.02.2012 09:00 14,6 C 7,2 C 0,0 UV-I 0,5 C 61 % 99 % 13 % 1025,1 hPa 0,0 l/m 3,6 km/h (1 Bft) 0,00 h 0,03 h 6,1 km/h (2 Bft)
25.02.2012 10:00 14,8 C 7,7 C 0,1 UV-I 1,1 C 61 % 98 % 32 % 1024,7 hPa 0,0 l/m 7,5 km/h (2 Bft) 0,00 h 0,03 h 12,8 km/h (3 Bft)
25.02.2012 11:00 14,9 C 8,5 C 0,4 UV-I 2,2 C 59 % 95 % 63 % 1024,8 hPa 0,0 l/m 8,9 km/h (2 Bft) 0,10 h 0,00 h 11,8 km/h (2 Bft)
25.02.2012 12:00 15,1 C 8,7 C 0,0 UV-I 0,9 C 58 % 92 % 26 % 1024,9 hPa 0,0 l/m 6,7 km/h (2 Bft) 0,00 h 0,00 h 10,9 km/h (2 Bft)
25.02.2012 13:00 15,2 C 9,1 C 0,2 UV-I 1,5 C 57 % 88 % 42 % 1024,6 hPa 0,0 l/m 6,2 km/h (2 Bft) 0,00 h 0,00 h 8,8 km/h (2 Bft)
25.02.2012 14:00 15,3 C 9,1 C 0,1 UV-I 1,4 C 56 % 85 % 40 % 1024,2 hPa 0,0 l/m 5,6 km/h (1 Bft) 0,00 h 0,00 h 9,1 km/h (2 Bft)
25.02.2012 15:00 15,7 C 9,3 C 0,0 UV-I 1,6 C 55 % 81 % 47 % 1024,1 hPa 0,0 l/m 7,6 km/h (2 Bft) 0,03 h 0,00 h 11,0 km/h (2 Bft)
25.02.2012 16:00 16,1 C 9,2 C 0,0 UV-I 0,8 C 53 % 77 % 24 % 1023,8 hPa 0,0 l/m 4,8 km/h (1 Bft) 0,00 h 0,00 h 6,8 km/h (2 Bft)
25.02.2012 17:00 15,7 C 8,6 C 0,0 UV-I 0,0 C 52 % 77 % 0 % 1023,3 hPa 0,0 l/m 4,3 km/h (1 Bft) 0,00 h 0,00 h 6,4 km/h (2 Bft)
25.02.2012 18:00 15,3 C 7,8 C 0,0 UV-I 0,0 C 53 % 80 % 0 % 1023,3 hPa 0,0 l/m 1,4 km/h (1 Bft) 0,00 h 0,00 h 2,7 km/h (1 Bft)
25.02.2012 19:00 15,1 C 7,3 C 0,0 UV-I 0,0 C 53 % 80 % 0 % 1022,9 hPa 0,0 l/m 2,0 km/h (1 Bft) 0,00 h 0,00 h 3,1 km/h (1 Bft)
25.02.2012 20:00 14,9 C 7,0 C 0,0 UV-I 0,0 C 53 % 79 % 0 % 1022,8 hPa 0,0 l/m 4,7 km/h (1 Bft) 0,00 h 0,00 h 7,1 km/h (2 Bft)
25.02.2012 21:00 14,8 C 6,6 C 0,0 UV-I 0,0 C 53 % 81 % 0 % 1023,1 hPa 0,0 l/m 3,7 km/h (1 Bft) 0,00 h 0,00 h 5,9 km/h (2 Bft)
25.02.2012 22:00 14,7 C 6,3 C 0,0 UV-I 0,0 C 53 % 83 % 0 % 1023,4 hPa 0,0 l/m 4,2 km/h (1 Bft) 0,00 h 0,00 h 7,3 km/h (2 Bft)
25.02.2012 23:00 14,7 C 6,0 C 0,0 UV-I 0,0 C 52 % 84 % 0 % 1023,6 hPa 0,0 l/m 4,6 km/h (1 Bft) 0,00 h 0,13 h 6,2 km/h (2 Bft)
26.02.2012 00:00 14,6 C 5,7 C 0,0 UV-I 0,0 C 52 % 85 % 0 % 1023,6 hPa 0,0 l/m 4,1 km/h (1 Bft) 0,00 h 0,00 h 6,9 km/h (2 Bft)
26.02.2012 01:00 14,5 C 5,5 C 0,0 UV-I 0,0 C 53 % 88 % 0 % 1023,8 hPa 0,0 l/m 4,5 km/h (1 Bft) 0,00 h 0,00 h 7,1 km/h (2 Bft)
26.02.2012 02:00 14,4 C 5,4 C 0,0 UV-I 0,0 C 53 % 89 % 0 % 1023,8 hPa 0,0 l/m 3,9 km/h (1 Bft) 0,00 h 0,03 h 7,2 km/h (2 Bft)
26.02.2012 03:00 14,3 C 5,5 C 0,0 UV-I 0,0 C 53 % 89 % 0 % 1023,3 hPa 0,0 l/m 4,9 km/h (1 Bft) 0,00 h 0,00 h 8,3 km/h (2 Bft)
26.02.2012 04:00 14,3 C 5,5 C 0,0 UV-I 0,0 C 53 % 90 % 0 % 1023,2 hPa 0,0 l/m 3,4 km/h (1 Bft) 0,00 h 0,00 h 6,4 km/h (2 Bft)
26.02.2012 05:00 14,3 C 5,3 C 0,0 UV-I 0,0 C 53 % 90 % 0 % 1023,3 hPa 0,0 l/m 3,6 km/h (1 Bft) 0,00 h 0,13 h 4,7 km/h (1 Bft)
26.02.2012 06:00 14,4 C 5,2 C 0,0 UV-I 0,0 C 53 % 91 % 0 % 1023,3 hPa 0,0 l/m 3,4 km/h (1 Bft) 0,00 h 0,00 h 5,3 km/h (1 Bft)
26.02.2012 07:00 14,2 C 5,3 C 0,0 UV-I 0,0 C 53 % 91 % 0 % 1023,7 hPa 0,0 l/m 2,9 km/h (1 Bft) 0,00 h 0,00 h 4,8 km/h (1 Bft)
26.02.2012 08:00 14,2 C 5,5 C 0,0 UV-I 0,0 C 53 % 91 % 0 % 1024,4 hPa 0,0 l/m 3,1 km/h (1 Bft) 0,00 h 0,13 h 6,0 km/h (2 Bft)
26.02.2012 09:00 14,1 C 5,8 C 0,0 UV-I 0,1 C 53 % 91 % 3 % 1024,9 hPa 0,0 l/m 3,1 km/h (1 Bft) 0,00 h 0,07 h 5,7 km/h (1 Bft)
26.02.2012 10:00 14,3 C 6,1 C 0,0 UV-I 0,5 C 54 % 92 % 13 % 1025,4 hPa 0,0 l/m 4,2 km/h (1 Bft) 0,00 h 0,00 h 6,9 km/h (2 Bft)
26.02.2012 11:00 14,4 C 6,4 C 0,0 UV-I 0,5 C 54 % 92 % 14 % 1026,1 hPa 0,0 l/m 4,2 km/h (1 Bft) 0,00 h 0,00 h 6,0 km/h (2 Bft)
26.02.2012 12:00 14,6 C 7,0 C 0,0 UV-I 0,8 C 54 % 92 % 23 % 1026,6 hPa 0,0 l/m 5,5 km/h (1 Bft) 0,00 h 0,03 h 7,8 km/h (2 Bft)
26.02.2012 13:00 14,7 C 7,5 C 0,0 UV-I 0,7 C 55 % 92 % 21 % 1026,4 hPa 0,0 l/m 4,7 km/h (1 Bft) 0,00 h 0,00 h 8,6 km/h (2 Bft)
26.02.2012 14:00 14,8 C 7,8 C 0,0 UV-I 0,7 C 55 % 90 % 19 % 1026,5 hPa 0,0 l/m 8,2 km/h (2 Bft) 0,00 h 0,00 h 11,3 km/h (2 Bft)
26.02.2012 15:00 14,9 C 8,0 C 0,0 UV-I 0,5 C 54 % 87 % 14 % 1026,9 hPa 0,0 l/m 4,5 km/h (1 Bft) 0,00 h 0,00 h 6,8 km/h (2 Bft)
26.02.2012 16:00 14,8 C 7,9 C 0,0 UV-I 0,0 C 54 % 86 % 0 % 1027,0 hPa 0,0 l/m 2,0 km/h (1 Bft) 0,00 h 0,00 h 1,8 km/h (1 Bft)
26.02.2012 17:00 14,8 C 7,7 C 0,0 UV-I 0,0 C 54 % 85 % 0 % 1027,0 hPa 0,0 l/m 0,3 km/h (0 Bft) 0,00 h 0,00 h 0,5 km/h (0 Bft)
26.02.2012 18:00 14,8 C 7,3 C 0,0 UV-I 0,0 C 54 % 87 % 0 % 1027,4 hPa 0,0 l/m 0,2 km/h (0 Bft) 0,00 h 0,00 h 0,6 km/h (0 Bft)
26.02.2012 19:00 14,7 C 6,9 C 0,0 UV-I 0,0 C 54 % 88 % 0 % 1027,6 hPa 0,0 l/m 0,0 km/h (0 Bft) 0,00 h 0,00 h 0,0 km/h (0 Bft)
26.02.2012 20:00 14,7 C 6,4 C 0,0 UV-I 0,0 C 54 % 89 % 0 % 1027,9 hPa 0,0 l/m 0,1 km/h (0 Bft) 0,00 h 0,10 h 0,2 km/h (0 Bft)
26.02.2012 21:00 14,6 C 6,1 C 0,0 UV-I 0,0 C 54 % 90 % 0 % 1028,2 hPa 0,0 l/m 0,2 km/h (0 Bft) 0,00 h 0,03 h 0,7 km/h (0 Bft)
26.02.2012 22:00 14,6 C 6,1 C 0,0 UV-I 0,0 C 54 % 91 % 0 % 1028,3 hPa 0,0 l/m 0,3 km/h (0 Bft) 0,00 h 0,00 h 0,5 km/h (0 Bft)
26.02.2012 23:00 14,6 C 5,6 C 0,0 UV-I 0,0 C 55 % 91 % 0 % 1028,3 hPa 0,0 l/m 0,1 km/h (0 Bft) 0,00 h 0,03 h 0,2 km/h (0 Bft)
Min-Datum _ 20.02.12 20.02.12 20.02.12 20.02.12 20.02.12 22.02.12 20.02.12 23.02.12 - 20.02.12 - - 20.02.12
_ Min-Zeit 07:48 07:34 00:00 00:00 16:32 14:14 00:00 03:26 - 00:26 - - 00:02
Minimum _ 11,9 C -2,5 C 0,0 UV-I 0,0 C 39 % 63 % 0 % 1018,8 hPa - 0,0 km/h (0 Bft) - - 0,0 km/h (0 Bft)
Max-Datum _ 21.02.12 23.02.12 21.02.12 20.02.12 24.02.12 25.02.12 20.02.12 20.02.12 24.02.12 22.02.12 20.02.12 22.02.12 23.02.12
_ Max-Zeit 15:04 16:10 12:44 12:02 04:20 08:14 09:14 13:46 21:10 23:02 09:08 22:38 01:02
Maximum _ 16,6 C 10,3 C 2,6 UV-I 9,1 C 66 % 99 % 100 % 1036,4 hPa 0,5 l/m 16,5 km/h
NW (3 Bft)
0,03 h 0,03 h 47,0 km/h
NW (6 Bft)
Durchschnitt _ 13,9 C 6,1 C 0,1 UV-I 0,7 C 53 % 87 % 15 % 1026,8 hPa #2,2 l/m 4,9 km/h (1 Bft) #17:16 h #9:42 h 7,3 km/h (2 Bft)
© 2012 W. Hausmann